PUA2046 SABE-SACO
Flight info
| Callsign | PUA2046 |
|---|---|
| Flight time | 1h 31m |
| Altitude | 34000 |
| Route | ATOVO UW5 ASISA |
| Aircraft | A321/M-SDE3FGHIRWY/LB1 |
Departure
| Time | 2026-05-03 21:25 |
|---|---|
| Airport | Aeroparque Jorge Newbery (SABE) |
Arrival
| Time | 2026-05-03 22:56 |
|---|---|
| Airport | Ingeniero Aeronáutico Ambrosio L.V. Taravella International Airport (SACO) |
| Time | Latitude | Longitude | Altitude | Speed | Heading |
|---|---|---|---|---|---|
| 2026-05-03 20:15 | -34.55893 | -58.41115 | 53 ft | 0 kts | 41° |
| 2026-05-03 20:49 | -34.55894 | -58.41116 | 25 ft | 2 kts | 41° |
| 2026-05-03 20:50 | -34.55909 | -58.41132 | 30 ft | 3 kts | 31° |
| 2026-05-03 20:50 | -34.55924 | -58.41139 | 27 ft | 3 kts | 332° |
| 2026-05-03 20:50 | -34.55937 | -58.41125 | 27 ft | 3 kts | 311° |
| 2026-05-03 20:50 | -34.55949 | -58.41108 | 30 ft | 1 kts | 311° |
| 2026-05-03 20:51 | -34.55950 | -58.41107 | 30 ft | 0 kts | 311° |
| 2026-05-03 20:58 | -34.55949 | -58.41109 | 25 ft | 2 kts | 311° |
| 2026-05-03 20:58 | -34.55927 | -58.41138 | 30 ft | 6 kts | 311° |
| 2026-05-03 20:59 | -34.55896 | -58.41181 | 29 ft | 7 kts | 311° |
| 2026-05-03 20:59 | -34.55861 | -58.41232 | 28 ft | 8 kts | 306° |
| 2026-05-03 20:59 | -34.55863 | -58.41280 | 28 ft | 6 kts | 232° |
| 2026-05-03 20:59 | -34.55903 | -58.41306 | 25 ft | 7 kts | 197° |
| 2026-05-03 21:00 | -34.55939 | -58.41277 | 28 ft | 7 kts | 125° |
| 2026-05-03 21:00 | -34.55961 | -58.41241 | 27 ft | 9 kts | 127° |
| 2026-05-03 21:00 | -34.56018 | -58.41150 | 27 ft | 11 kts | 128° |
| 2026-05-03 21:00 | -34.56059 | -58.41086 | 29 ft | 7 kts | 128° |
| 2026-05-03 21:01 | -34.56093 | -58.41033 | 26 ft | 8 kts | 128° |
| 2026-05-03 21:01 | -34.56129 | -58.40975 | 29 ft | 8 kts | 125° |
| 2026-05-03 21:01 | -34.56146 | -58.40940 | 27 ft | 3 kts | 119° |
| 2026-05-03 21:01 | -34.56147 | -58.40938 | 27 ft | 0 kts | 118° |
| 2026-05-03 21:02 | -34.56155 | -58.40921 | 28 ft | 4 kts | 118° |
| 2026-05-03 21:02 | -34.56169 | -58.40886 | 29 ft | 5 kts | 111° |
| 2026-05-03 21:03 | -34.56170 | -58.40876 | 28 ft | 0 kts | 97° |
| 2026-05-03 21:04 | -34.56170 | -58.40870 | 25 ft | 2 kts | 90° |
| 2026-05-03 21:04 | -34.56170 | -58.40846 | 25 ft | 3 kts | 101° |
| 2026-05-03 21:04 | -34.56174 | -58.40833 | 25 ft | 0 kts | 112° |
| 2026-05-03 21:06 | -34.56175 | -58.40832 | 25 ft | 1 kts | 112° |
| 2026-05-03 21:06 | -34.56186 | -58.40803 | 28 ft | 5 kts | 118° |
| 2026-05-03 21:07 | -34.56208 | -58.40762 | 26 ft | 7 kts | 124° |
| 2026-05-03 21:07 | -34.56235 | -58.40715 | 26 ft | 2 kts | 125° |
| 2026-05-03 21:07 | -34.56238 | -58.40710 | 29 ft | 0 kts | 124° |
| 2026-05-03 21:09 | -34.56243 | -58.40702 | 25 ft | 2 kts | 124° |
| 2026-05-03 21:09 | -34.56254 | -58.40682 | 28 ft | 4 kts | 124° |
| 2026-05-03 21:09 | -34.56260 | -58.40672 | 26 ft | 0 kts | 124° |
| 2026-05-03 21:12 | -34.56264 | -58.40664 | 27 ft | 3 kts | 124° |
| 2026-05-03 21:12 | -34.56278 | -58.40639 | 26 ft | 4 kts | 124° |
| 2026-05-03 21:12 | -34.56287 | -58.40624 | 26 ft | 0 kts | 124° |
| 2026-05-03 21:14 | -34.56295 | -58.40609 | 26 ft | 4 kts | 124° |
| 2026-05-03 21:14 | -34.56315 | -58.40579 | 27 ft | 4 kts | 133° |
| 2026-05-03 21:15 | -34.56322 | -58.40571 | 27 ft | 0 kts | 137° |
| 2026-05-03 21:16 | -34.56330 | -58.40562 | 29 ft | 3 kts | 137° |
| 2026-05-03 21:16 | -34.56348 | -58.40541 | 29 ft | 4 kts | 137° |
| 2026-05-03 21:16 | -34.56362 | -58.40526 | 25 ft | 2 kts | 138° |
| 2026-05-03 21:16 | -34.56364 | -58.40523 | 25 ft | 0 kts | 138° |
| 2026-05-03 21:17 | -34.56365 | -58.40522 | 25 ft | 1 kts | 138° |
| 2026-05-03 21:18 | -34.56378 | -58.40508 | 29 ft | 3 kts | 138° |
| 2026-05-03 21:18 | -34.56398 | -58.40486 | 27 ft | 4 kts | 138° |
| 2026-05-03 21:18 | -34.56409 | -58.40475 | 26 ft | 0 kts | 138° |
| 2026-05-03 21:22 | -34.56412 | -58.40472 | 26 ft | 2 kts | 138° |
| 2026-05-03 21:22 | -34.56430 | -58.40452 | 27 ft | 7 kts | 138° |
| 2026-05-03 21:23 | -34.56470 | -58.40409 | 27 ft | 8 kts | 138° |
| 2026-05-03 21:23 | -34.56521 | -58.40388 | 28 ft | 8 kts | 189° |
| 2026-05-03 21:23 | -34.56563 | -58.40429 | 25 ft | 7 kts | 254° |
| 2026-05-03 21:23 | -34.56540 | -58.40477 | 26 ft | 7 kts | 307° |
| 2026-05-03 21:24 | -34.56533 | -58.40489 | 25 ft | 0 kts | 302° |
| 2026-05-03 21:24 | -34.56532 | -58.40491 | 25 ft | 2 kts | 302° |
| 2026-05-03 21:24 | -34.56443 | -58.40655 | 29 ft | 59 kts | 304° |
| 2026-05-03 21:24 | -34.56075 | -58.41306 | 30 ft | 125 kts | 304° |
| 2026-05-03 21:25 | -34.55497 | -58.42343 | 166 ft | 162 kts | 306° |
| 2026-05-03 21:25 | -34.54889 | -58.43480 | 862 ft | 163 kts | 307° |
| 2026-05-03 21:25 | -34.54194 | -58.44573 | 1563 ft | 165 kts | 318° |
| 2026-05-03 21:25 | -34.53258 | -58.45432 | 2105 ft | 175 kts | 335° |
| 2026-05-03 21:26 | -34.52085 | -58.45920 | 2593 ft | 184 kts | 348° |
| 2026-05-03 21:26 | -34.50763 | -58.46032 | 2978 ft | 200 kts | 1° |
| 2026-05-03 21:26 | -34.49308 | -58.45673 | 3177 ft | 229 kts | 18° |
| 2026-05-03 21:26 | -34.47825 | -58.44681 | 3588 ft | 251 kts | 28° |
| 2026-05-03 21:27 | -34.46329 | -58.43559 | 4248 ft | 258 kts | 28° |
| 2026-05-03 21:27 | -34.44785 | -58.42405 | 4968 ft | 264 kts | 28° |
| 2026-05-03 21:27 | -34.43199 | -58.41221 | 5650 ft | 271 kts | 28° |
| 2026-05-03 21:27 | -34.41557 | -58.39996 | 6365 ft | 276 kts | 28° |
| 2026-05-03 21:28 | -34.39911 | -58.38765 | 7055 ft | 281 kts | 27° |
| 2026-05-03 21:28 | -34.38150 | -58.37754 | 7720 ft | 279 kts | 10° |
| 2026-05-03 21:28 | -34.36241 | -58.37564 | 8392 ft | 275 kts | 348° |
| 2026-05-03 21:28 | -34.34425 | -58.38228 | 9097 ft | 272 kts | 328° |
| 2026-05-03 21:29 | -34.32857 | -58.39479 | 9828 ft | 272 kts | 321° |
| 2026-05-03 21:29 | -34.31289 | -58.40796 | 10381 ft | 282 kts | 321° |
| 2026-05-03 21:29 | -34.29613 | -58.42201 | 10534 ft | 305 kts | 322° |
| 2026-05-03 21:29 | -34.27811 | -58.43702 | 10793 ft | 321 kts | 322° |
| 2026-05-03 21:30 | -34.25942 | -58.45249 | 11363 ft | 327 kts | 322° |
| 2026-05-03 21:30 | -34.24053 | -58.46804 | 11987 ft | 331 kts | 322° |
| 2026-05-03 21:30 | -34.22134 | -58.48385 | 12606 ft | 336 kts | 322° |
| 2026-05-03 21:30 | -34.20196 | -58.49985 | 13215 ft | 340 kts | 322° |
| 2026-05-03 21:31 | -34.18224 | -58.51611 | 13836 ft | 344 kts | 322° |
| 2026-05-03 21:31 | -34.16263 | -58.53286 | 14387 ft | 346 kts | 316° |
| 2026-05-03 21:31 | -34.14669 | -58.55430 | 14937 ft | 344 kts | 299° |
| 2026-05-03 21:31 | -34.13720 | -58.58057 | 15498 ft | 342 kts | 281° |
| 2026-05-03 21:32 | -34.13304 | -58.60884 | 16090 ft | 343 kts | 277° |
| 2026-05-03 21:32 | -34.12931 | -58.63742 | 16706 ft | 345 kts | 277° |
| 2026-05-03 21:32 | -34.12564 | -58.66615 | 17317 ft | 348 kts | 277° |
| 2026-05-03 21:32 | -34.12194 | -58.69510 | 17882 ft | 350 kts | 277° |
| 2026-05-03 21:33 | -34.11817 | -58.72425 | 18440 ft | 353 kts | 277° |
| 2026-05-03 21:33 | -34.11432 | -58.75366 | 18944 ft | 356 kts | 277° |
| 2026-05-03 21:33 | -34.11041 | -58.78321 | 19453 ft | 358 kts | 277° |
| 2026-05-03 21:33 | -34.10644 | -58.81303 | 19965 ft | 360 kts | 277° |
| 2026-05-03 21:34 | -34.10245 | -58.84295 | 20482 ft | 363 kts | 277° |
| 2026-05-03 21:34 | -34.09840 | -58.87317 | 20995 ft | 365 kts | 277° |
| 2026-05-03 21:34 | -34.09429 | -58.90389 | 21515 ft | 368 kts | 276° |
| 2026-05-03 21:34 | -34.09021 | -58.93441 | 22027 ft | 370 kts | 276° |
| 2026-05-03 21:35 | -34.08611 | -58.96515 | 22526 ft | 373 kts | 276° |
| 2026-05-03 21:35 | -34.08197 | -58.99614 | 23015 ft | 375 kts | 276° |
| 2026-05-03 21:35 | -34.07781 | -59.02729 | 23499 ft | 377 kts | 276° |
| 2026-05-03 21:35 | -34.07358 | -59.05857 | 23905 ft | 379 kts | 276° |
| 2026-05-03 21:36 | -34.06932 | -59.09005 | 24038 ft | 379 kts | 276° |
| 2026-05-03 21:36 | -34.06453 | -59.12130 | 24084 ft | 380 kts | 282° |
| 2026-05-03 21:36 | -34.05527 | -59.15138 | 24253 ft | 388 kts | 292° |
| 2026-05-03 21:36 | -34.04095 | -59.17924 | 24635 ft | 395 kts | 303° |
| 2026-05-03 21:37 | -34.02338 | -59.20500 | 24997 ft | 399 kts | 304° |
| 2026-05-03 21:37 | -34.00553 | -59.23082 | 25365 ft | 402 kts | 304° |
| 2026-05-03 21:37 | -33.98759 | -59.25674 | 25728 ft | 404 kts | 304° |
| 2026-05-03 21:37 | -33.96956 | -59.28277 | 26084 ft | 406 kts | 304° |
| 2026-05-03 21:38 | -33.95136 | -59.30899 | 26455 ft | 408 kts | 304° |
| 2026-05-03 21:38 | -33.93309 | -59.33523 | 26808 ft | 410 kts | 304° |
| 2026-05-03 21:38 | -33.91471 | -59.36155 | 27178 ft | 412 kts | 304° |
| 2026-05-03 21:38 | -33.89624 | -59.38798 | 27530 ft | 414 kts | 304° |
| 2026-05-03 21:39 | -33.87771 | -59.41453 | 27856 ft | 416 kts | 304° |
| 2026-05-03 21:39 | -33.85905 | -59.44128 | 28177 ft | 418 kts | 304° |
| 2026-05-03 21:39 | -33.84033 | -59.46812 | 28502 ft | 420 kts | 304° |
| 2026-05-03 21:39 | -33.82146 | -59.49518 | 28824 ft | 423 kts | 304° |
| 2026-05-03 21:40 | -33.80251 | -59.52231 | 29139 ft | 425 kts | 304° |
| 2026-05-03 21:40 | -33.78343 | -59.54955 | 29454 ft | 427 kts | 304° |
| 2026-05-03 21:40 | -33.76427 | -59.57685 | 29761 ft | 429 kts | 304° |
| 2026-05-03 21:40 | -33.74497 | -59.60438 | 30064 ft | 431 kts | 304° |
| 2026-05-03 21:41 | -33.72563 | -59.63194 | 30357 ft | 432 kts | 304° |
| 2026-05-03 21:41 | -33.70622 | -59.65960 | 30618 ft | 434 kts | 303° |
| 2026-05-03 21:41 | -33.68647 | -59.68777 | 30879 ft | 436 kts | 303° |
| 2026-05-03 21:41 | -33.66685 | -59.71571 | 31134 ft | 438 kts | 303° |
| 2026-05-03 21:42 | -33.64725 | -59.74356 | 31495 ft | 437 kts | 303° |
| 2026-05-03 21:42 | -33.62757 | -59.77142 | 31870 ft | 436 kts | 303° |
| 2026-05-03 21:42 | -33.60798 | -59.79909 | 32239 ft | 435 kts | 303° |
| 2026-05-03 21:42 | -33.58840 | -59.82667 | 32733 ft | 431 kts | 303° |
| 2026-05-03 21:43 | -33.56911 | -59.85385 | 33238 ft | 427 kts | 303° |
| 2026-05-03 21:43 | -33.54996 | -59.88090 | 33635 ft | 425 kts | 303° |
| 2026-05-03 21:43 | -33.53089 | -59.90787 | 33968 ft | 424 kts | 303° |
| 2026-05-03 21:43 | -33.51185 | -59.93485 | 34060 ft | 424 kts | 302° |
| 2026-05-03 21:44 | -33.47376 | -59.98861 | 34062 ft | 423 kts | 303° |
| 2026-05-03 21:44 | -33.43561 | -60.04222 | 34062 ft | 423 kts | 303° |
| 2026-05-03 21:45 | -33.39754 | -60.09581 | 34057 ft | 423 kts | 302° |
| 2026-05-03 21:45 | -33.35945 | -60.14945 | 34060 ft | 423 kts | 302° |
| 2026-05-03 21:46 | -33.32126 | -60.20300 | 34058 ft | 424 kts | 303° |
| 2026-05-03 21:46 | -33.28294 | -60.25665 | 34069 ft | 424 kts | 303° |
| 2026-05-03 21:47 | -33.24465 | -60.31015 | 34067 ft | 423 kts | 303° |
| 2026-05-03 21:47 | -33.20638 | -60.36356 | 34043 ft | 423 kts | 303° |
| 2026-05-03 21:48 | -33.16806 | -60.41698 | 34047 ft | 424 kts | 303° |
| 2026-05-03 21:48 | -33.12967 | -60.47033 | 34050 ft | 424 kts | 303° |
| 2026-05-03 21:49 | -33.09123 | -60.52372 | 34058 ft | 424 kts | 303° |
| 2026-05-03 21:49 | -33.05289 | -60.57701 | 34059 ft | 423 kts | 303° |
| 2026-05-03 21:50 | -33.01431 | -60.63056 | 34057 ft | 423 kts | 303° |
| 2026-05-03 21:50 | -32.97588 | -60.68374 | 34067 ft | 423 kts | 303° |
| 2026-05-03 21:51 | -32.93736 | -60.73682 | 34066 ft | 424 kts | 303° |
| 2026-05-03 21:51 | -32.90033 | -60.79095 | 34068 ft | 416 kts | 295° |
| 2026-05-03 21:52 | -32.87614 | -60.83995 | 34075 ft | 413 kts | 293° |
| 2026-05-03 21:52 | -32.84712 | -60.89900 | 34071 ft | 414 kts | 294° |
| 2026-05-03 21:53 | -32.81790 | -60.95793 | 34052 ft | 414 kts | 294° |
| 2026-05-03 21:53 | -32.78869 | -61.01688 | 34049 ft | 413 kts | 294° |
| 2026-05-03 21:54 | -32.75952 | -61.07577 | 34056 ft | 413 kts | 294° |
| 2026-05-03 21:54 | -32.73028 | -61.13455 | 34053 ft | 413 kts | 294° |
| 2026-05-03 21:55 | -32.70099 | -61.19328 | 34040 ft | 413 kts | 294° |
| 2026-05-03 21:55 | -32.67159 | -61.25232 | 34038 ft | 413 kts | 294° |
| 2026-05-03 21:56 | -32.64230 | -61.31106 | 34044 ft | 413 kts | 294° |
| 2026-05-03 21:56 | -32.61300 | -61.36971 | 34045 ft | 413 kts | 294° |
| 2026-05-03 21:57 | -32.58364 | -61.42828 | 34048 ft | 413 kts | 294° |
| 2026-05-03 21:57 | -32.55424 | -61.48686 | 34025 ft | 413 kts | 294° |
| 2026-05-03 21:58 | -32.52486 | -61.54531 | 34033 ft | 413 kts | 294° |
| 2026-05-03 21:58 | -32.49549 | -61.60371 | 34039 ft | 413 kts | 294° |
| 2026-05-03 21:59 | -32.46608 | -61.66205 | 34042 ft | 413 kts | 294° |
| 2026-05-03 21:59 | -32.43665 | -61.72034 | 34041 ft | 413 kts | 294° |
| 2026-05-03 22:00 | -32.40714 | -61.77858 | 34040 ft | 413 kts | 294° |
| 2026-05-03 22:00 | -32.37764 | -61.83678 | 34028 ft | 412 kts | 294° |
| 2026-05-03 22:01 | -32.34814 | -61.89503 | 34037 ft | 412 kts | 294° |
| 2026-05-03 22:01 | -32.31866 | -61.95313 | 34045 ft | 412 kts | 295° |
| 2026-05-03 22:02 | -32.28898 | -62.01152 | 34046 ft | 412 kts | 295° |
| 2026-05-03 22:02 | -32.25946 | -62.06948 | 34046 ft | 411 kts | 295° |
| 2026-05-03 22:03 | -32.22993 | -62.12729 | 34025 ft | 411 kts | 295° |
| 2026-05-03 22:03 | -32.21518 | -62.15619 | 33885 ft | 412 kts | 295° |
| 2026-05-03 22:03 | -32.20046 | -62.18491 | 33582 ft | 405 kts | 295° |
| 2026-05-03 22:04 | -32.18596 | -62.21312 | 33315 ft | 397 kts | 295° |
| 2026-05-03 22:04 | -32.17177 | -62.24081 | 33046 ft | 393 kts | 295° |
| 2026-05-03 22:04 | -32.15769 | -62.26831 | 32788 ft | 390 kts | 294° |
| 2026-05-03 22:04 | -32.14370 | -62.29570 | 32526 ft | 388 kts | 294° |
| 2026-05-03 22:05 | -32.12974 | -62.32299 | 32272 ft | 387 kts | 295° |
| 2026-05-03 22:05 | -32.11585 | -62.35006 | 32014 ft | 386 kts | 295° |
| 2026-05-03 22:05 | -32.10199 | -62.37704 | 31759 ft | 385 kts | 295° |
| 2026-05-03 22:05 | -32.08815 | -62.40399 | 31537 ft | 384 kts | 295° |
| 2026-05-03 22:06 | -32.07433 | -62.43092 | 31280 ft | 382 kts | 295° |
| 2026-05-03 22:06 | -32.06057 | -62.45766 | 31018 ft | 381 kts | 295° |
| 2026-05-03 22:06 | -32.04685 | -62.48424 | 30740 ft | 376 kts | 295° |
| 2026-05-03 22:06 | -32.03334 | -62.51040 | 30333 ft | 372 kts | 295° |
| 2026-05-03 22:07 | -32.01997 | -62.53636 | 29900 ft | 369 kts | 295° |
| 2026-05-03 22:07 | -32.00676 | -62.56204 | 29484 ft | 365 kts | 295° |
| 2026-05-03 22:07 | -31.99364 | -62.58746 | 29096 ft | 361 kts | 295° |
| 2026-05-03 22:07 | -31.98065 | -62.61258 | 28713 ft | 357 kts | 295° |
| 2026-05-03 22:08 | -31.96777 | -62.63747 | 28341 ft | 354 kts | 295° |
| 2026-05-03 22:08 | -31.95484 | -62.66241 | 27964 ft | 351 kts | 295° |
| 2026-05-03 22:08 | -31.94220 | -62.68680 | 27602 ft | 347 kts | 295° |
| 2026-05-03 22:08 | -31.92971 | -62.71088 | 27250 ft | 343 kts | 295° |
| 2026-05-03 22:09 | -31.91530 | -62.73352 | 26902 ft | 357 kts | 310° |
| 2026-05-03 22:09 | -31.89395 | -62.75007 | 26553 ft | 380 kts | 330° |
| 2026-05-03 22:09 | -31.86773 | -62.75778 | 26316 ft | 396 kts | 345° |
| 2026-05-03 22:10 | -31.81270 | -62.76499 | 25832 ft | 398 kts | 347° |
| 2026-05-03 22:10 | -31.78529 | -62.76838 | 25594 ft | 396 kts | 347° |
| 2026-05-03 22:10 | -31.75789 | -62.77179 | 25358 ft | 395 kts | 347° |
| 2026-05-03 22:10 | -31.73066 | -62.77520 | 25126 ft | 394 kts | 347° |
| 2026-05-03 22:11 | -31.70345 | -62.77862 | 24893 ft | 392 kts | 347° |
| 2026-05-03 22:11 | -31.67640 | -62.78204 | 24660 ft | 391 kts | 347° |
| 2026-05-03 22:11 | -31.64938 | -62.78548 | 24421 ft | 389 kts | 347° |
| 2026-05-03 22:11 | -31.62267 | -62.78977 | 24199 ft | 385 kts | 342° |
| 2026-05-03 22:12 | -31.59637 | -62.79571 | 23969 ft | 383 kts | 342° |
| 2026-05-03 22:12 | -31.57034 | -62.80182 | 23744 ft | 382 kts | 341° |
| 2026-05-03 22:12 | -31.54427 | -62.80798 | 23510 ft | 381 kts | 341° |
| 2026-05-03 22:12 | -31.51838 | -62.81413 | 23245 ft | 379 kts | 341° |
| 2026-05-03 22:13 | -31.49254 | -62.82029 | 22977 ft | 378 kts | 341° |
| 2026-05-03 22:13 | -31.46687 | -62.82644 | 22721 ft | 376 kts | 341° |
| 2026-05-03 22:13 | -31.44126 | -62.83260 | 22457 ft | 374 kts | 341° |
| 2026-05-03 22:13 | -31.41585 | -62.83872 | 22192 ft | 372 kts | 341° |
| 2026-05-03 22:14 | -31.39015 | -62.84497 | 21932 ft | 371 kts | 341° |
| 2026-05-03 22:14 | -31.36493 | -62.85116 | 21685 ft | 370 kts | 341° |
| 2026-05-03 22:14 | -31.33975 | -62.85737 | 21434 ft | 368 kts | 341° |
| 2026-05-03 22:14 | -31.31473 | -62.86356 | 21186 ft | 367 kts | 341° |
| 2026-05-03 22:15 | -31.28984 | -62.86975 | 20942 ft | 365 kts | 341° |
| 2026-05-03 22:15 | -31.26501 | -62.87595 | 20678 ft | 364 kts | 341° |
| 2026-05-03 22:15 | -31.24034 | -62.88212 | 20389 ft | 362 kts | 341° |
| 2026-05-03 22:15 | -31.21576 | -62.88831 | 20094 ft | 360 kts | 341° |
| 2026-05-03 22:16 | -31.19126 | -62.89451 | 19819 ft | 359 kts | 341° |
| 2026-05-03 22:16 | -31.16693 | -62.90073 | 19532 ft | 358 kts | 341° |
| 2026-05-03 22:16 | -31.14265 | -62.90699 | 19247 ft | 357 kts | 341° |
| 2026-05-03 22:16 | -31.11849 | -62.91327 | 18975 ft | 355 kts | 341° |
| 2026-05-03 22:17 | -31.09443 | -62.91955 | 18705 ft | 354 kts | 341° |
| 2026-05-03 22:17 | -31.07047 | -62.92584 | 18430 ft | 352 kts | 341° |
| 2026-05-03 22:17 | -31.04669 | -62.93213 | 18140 ft | 350 kts | 341° |
| 2026-05-03 22:17 | -31.02327 | -62.93938 | 17825 ft | 343 kts | 331° |
| 2026-05-03 22:18 | -31.00380 | -62.95403 | 17505 ft | 328 kts | 309° |
| 2026-05-03 22:18 | -30.99096 | -62.97526 | 17158 ft | 318 kts | 293° |
| 2026-05-03 22:18 | -30.98117 | -62.99833 | 16808 ft | 317 kts | 291° |
| 2026-05-03 22:18 | -30.97174 | -63.02150 | 16456 ft | 316 kts | 291° |
| 2026-05-03 22:19 | -30.96240 | -63.04470 | 16120 ft | 315 kts | 291° |
| 2026-05-03 22:19 | -30.95319 | -63.06777 | 15782 ft | 314 kts | 291° |
| 2026-05-03 22:19 | -30.94403 | -63.09088 | 15441 ft | 313 kts | 291° |
| 2026-05-03 22:19 | -30.93497 | -63.11393 | 15118 ft | 312 kts | 291° |
| 2026-05-03 22:20 | -30.92601 | -63.13690 | 14790 ft | 311 kts | 291° |
| 2026-05-03 22:20 | -30.91709 | -63.15980 | 14465 ft | 310 kts | 291° |
| 2026-05-03 22:20 | -30.90822 | -63.18270 | 14148 ft | 309 kts | 291° |
| 2026-05-03 22:20 | -30.89945 | -63.20548 | 13824 ft | 308 kts | 291° |
| 2026-05-03 22:21 | -30.89075 | -63.22822 | 13469 ft | 307 kts | 291° |
| 2026-05-03 22:21 | -30.88210 | -63.25095 | 13118 ft | 306 kts | 291° |
| 2026-05-03 22:21 | -30.87356 | -63.27354 | 12770 ft | 305 kts | 291° |
| 2026-05-03 22:21 | -30.86645 | -63.29659 | 12420 ft | 300 kts | 278° |
| 2026-05-03 22:22 | -30.86450 | -63.32086 | 12090 ft | 295 kts | 272° |
| 2026-05-03 22:22 | -30.86353 | -63.34446 | 12013 ft | 290 kts | 272° |
| 2026-05-03 22:22 | -30.86265 | -63.36795 | 12017 ft | 291 kts | 272° |
| 2026-05-03 22:22 | -30.86177 | -63.39155 | 12026 ft | 292 kts | 272° |
| 2026-05-03 22:23 | -30.86089 | -63.41509 | 12026 ft | 292 kts | 272° |
| 2026-05-03 22:23 | -30.86002 | -63.43870 | 12026 ft | 292 kts | 271° |
| 2026-05-03 22:23 | -30.85910 | -63.46226 | 12021 ft | 292 kts | 272° |
| 2026-05-03 22:23 | -30.85816 | -63.48579 | 12025 ft | 290 kts | 272° |
| 2026-05-03 22:24 | -30.85752 | -63.50134 | 12024 ft | 291 kts | 272° |
| 2026-05-03 22:24 | -30.85623 | -63.53270 | 12023 ft | 290 kts | 272° |
| 2026-05-03 22:24 | -30.85526 | -63.55616 | 12026 ft | 290 kts | 272° |
| 2026-05-03 22:24 | -30.85460 | -63.57173 | 12019 ft | 290 kts | 272° |
| 2026-05-03 22:25 | -30.85363 | -63.59526 | 12026 ft | 291 kts | 272° |
| 2026-05-03 22:25 | -30.85267 | -63.61886 | 12025 ft | 292 kts | 272° |
| 2026-05-03 22:25 | -30.85168 | -63.64238 | 12018 ft | 291 kts | 272° |
| 2026-05-03 22:25 | -30.85066 | -63.66597 | 12019 ft | 292 kts | 272° |
| 2026-05-03 22:26 | -30.84963 | -63.68947 | 12027 ft | 291 kts | 272° |
| 2026-05-03 22:26 | -30.84859 | -63.71331 | 12021 ft | 291 kts | 272° |
| 2026-05-03 22:26 | -30.84755 | -63.73653 | 12017 ft | 291 kts | 272° |
| 2026-05-03 22:26 | -30.84647 | -63.76034 | 12025 ft | 290 kts | 272° |
| 2026-05-03 22:27 | -30.84538 | -63.78377 | 12017 ft | 290 kts | 272° |
| 2026-05-03 22:27 | -30.84428 | -63.80717 | 12023 ft | 290 kts | 272° |
| 2026-05-03 22:27 | -30.84317 | -63.83060 | 12024 ft | 290 kts | 272° |
| 2026-05-03 22:27 | -30.84202 | -63.85404 | 12023 ft | 290 kts | 272° |
| 2026-05-03 22:28 | -30.84088 | -63.87745 | 12021 ft | 290 kts | 272° |
| 2026-05-03 22:28 | -30.83971 | -63.90086 | 12023 ft | 289 kts | 272° |
| 2026-05-03 22:28 | -30.83854 | -63.92422 | 12023 ft | 289 kts | 272° |
| 2026-05-03 22:28 | -30.83740 | -63.94756 | 12024 ft | 290 kts | 272° |
| 2026-05-03 22:29 | -30.83625 | -63.97089 | 12022 ft | 289 kts | 272° |
| 2026-05-03 22:29 | -30.83509 | -63.99431 | 12021 ft | 290 kts | 272° |
| 2026-05-03 22:29 | -30.83393 | -64.01774 | 12021 ft | 290 kts | 272° |
| 2026-05-03 22:29 | -30.83274 | -64.04118 | 12023 ft | 290 kts | 272° |
| 2026-05-03 22:30 | -30.83153 | -64.06460 | 12021 ft | 290 kts | 272° |
| 2026-05-03 22:30 | -30.83022 | -64.08805 | 12018 ft | 290 kts | 272° |
| 2026-05-03 22:30 | -30.82889 | -64.11146 | 12023 ft | 290 kts | 272° |
| 2026-05-03 22:30 | -30.82751 | -64.13488 | 12017 ft | 290 kts | 272° |
| 2026-05-03 22:31 | -30.82618 | -64.15834 | 12019 ft | 291 kts | 272° |
| 2026-05-03 22:31 | -30.82484 | -64.18179 | 12024 ft | 291 kts | 272° |
| 2026-05-03 22:31 | -30.82349 | -64.20561 | 12016 ft | 292 kts | 272° |
| 2026-05-03 22:31 | -30.82217 | -64.22920 | 12025 ft | 292 kts | 272° |
| 2026-05-03 22:32 | -30.82079 | -64.25268 | 12013 ft | 291 kts | 272° |
| 2026-05-03 22:32 | -30.81942 | -64.27616 | 12010 ft | 291 kts | 272° |
| 2026-05-03 22:32 | -30.81800 | -64.30022 | 12023 ft | 306 kts | 272° |
| 2026-05-03 22:32 | -30.81650 | -64.32521 | 12011 ft | 312 kts | 272° |
| 2026-05-03 22:33 | -30.81501 | -64.35049 | 12009 ft | 315 kts | 272° |
| 2026-05-03 22:33 | -30.81347 | -64.37585 | 12011 ft | 315 kts | 272° |
| 2026-05-03 22:33 | -30.81191 | -64.40126 | 12013 ft | 315 kts | 272° |
| 2026-05-03 22:33 | -30.81036 | -64.42707 | 12008 ft | 324 kts | 272° |
| 2026-05-03 22:34 | -30.81006 | -64.45336 | 12012 ft | 325 kts | 261° |
| 2026-05-03 22:34 | -30.81751 | -64.47796 | 12013 ft | 325 kts | 238° |
| 2026-05-03 22:34 | -30.83284 | -64.49718 | 12006 ft | 327 kts | 216° |
| 2026-05-03 22:34 | -30.85365 | -64.50797 | 12004 ft | 332 kts | 196° |
| 2026-05-03 22:35 | -30.87634 | -64.51340 | 12003 ft | 333 kts | 193° |
| 2026-05-03 22:35 | -30.89912 | -64.51825 | 12010 ft | 334 kts | 193° |
| 2026-05-03 22:35 | -30.92202 | -64.52308 | 12004 ft | 333 kts | 193° |
| 2026-05-03 22:35 | -30.94480 | -64.52791 | 12006 ft | 333 kts | 193° |
| 2026-05-03 22:36 | -30.96762 | -64.53277 | 12010 ft | 333 kts | 193° |
| 2026-05-03 22:36 | -30.99039 | -64.53762 | 12008 ft | 334 kts | 193° |
| 2026-05-03 22:36 | -31.01287 | -64.54237 | 11902 ft | 322 kts | 193° |
| 2026-05-03 22:36 | -31.03462 | -64.54695 | 11645 ft | 314 kts | 193° |
| 2026-05-03 22:37 | -31.05586 | -64.55146 | 11407 ft | 306 kts | 193° |
| 2026-05-03 22:37 | -31.07663 | -64.55580 | 11171 ft | 300 kts | 193° |
| 2026-05-03 22:37 | -31.09699 | -64.56006 | 10944 ft | 297 kts | 193° |
| 2026-05-03 22:37 | -31.11726 | -64.56444 | 10703 ft | 296 kts | 193° |
| 2026-05-03 22:38 | -31.13749 | -64.56880 | 10469 ft | 294 kts | 193° |
| 2026-05-03 22:38 | -31.15762 | -64.57291 | 10246 ft | 293 kts | 193° |
| 2026-05-03 22:38 | -31.17796 | -64.57708 | 10065 ft | 293 kts | 193° |
| 2026-05-03 22:38 | -31.19807 | -64.58141 | 10007 ft | 294 kts | 193° |
| 2026-05-03 22:39 | -31.21818 | -64.58561 | 10013 ft | 294 kts | 193° |
| 2026-05-03 22:39 | -31.23832 | -64.58970 | 10015 ft | 293 kts | 193° |
| 2026-05-03 22:39 | -31.25839 | -64.59379 | 10005 ft | 293 kts | 193° |
| 2026-05-03 22:39 | -31.27855 | -64.59786 | 10006 ft | 294 kts | 193° |
| 2026-05-03 22:40 | -31.29867 | -64.60190 | 10006 ft | 294 kts | 189° |
| 2026-05-03 22:40 | -31.31917 | -64.60120 | 10008 ft | 297 kts | 175° |
| 2026-05-03 22:40 | -31.33965 | -64.59761 | 9815 ft | 296 kts | 173° |
| 2026-05-03 22:40 | -31.35991 | -64.59367 | 9389 ft | 296 kts | 173° |
| 2026-05-03 22:41 | -31.38030 | -64.58945 | 8956 ft | 297 kts | 173° |
| 2026-05-03 22:41 | -31.40063 | -64.58533 | 8545 ft | 297 kts | 173° |
| 2026-05-03 22:41 | -31.42106 | -64.58127 | 8143 ft | 298 kts | 173° |
| 2026-05-03 22:41 | -31.44153 | -64.57735 | 7849 ft | 298 kts | 173° |
| 2026-05-03 22:42 | -31.46205 | -64.57359 | 7603 ft | 298 kts | 173° |
| 2026-05-03 22:42 | -31.48253 | -64.56991 | 7364 ft | 298 kts | 173° |
| 2026-05-03 22:42 | -31.50301 | -64.56618 | 7132 ft | 298 kts | 173° |
| 2026-05-03 22:42 | -31.52345 | -64.56242 | 6873 ft | 297 kts | 173° |
| 2026-05-03 22:43 | -31.54387 | -64.55851 | 6515 ft | 298 kts | 169° |
| 2026-05-03 22:43 | -31.56265 | -64.54880 | 6222 ft | 296 kts | 142° |
| 2026-05-03 22:43 | -31.57562 | -64.53074 | 6038 ft | 287 kts | 114° |
| 2026-05-03 22:43 | -31.58231 | -64.50845 | 5987 ft | 287 kts | 104° |
| 2026-05-03 22:44 | -31.58760 | -64.48586 | 5993 ft | 288 kts | 103° |
| 2026-05-03 22:44 | -31.59289 | -64.46312 | 5999 ft | 289 kts | 103° |
| 2026-05-03 22:44 | -31.59813 | -64.44036 | 6001 ft | 289 kts | 103° |
| 2026-05-03 22:44 | -31.60200 | -64.41743 | 5993 ft | 285 kts | 88° |
| 2026-05-03 22:45 | -31.59900 | -64.39477 | 6000 ft | 281 kts | 65° |
| 2026-05-03 22:45 | -31.59018 | -64.37450 | 6001 ft | 278 kts | 57° |
| 2026-05-03 22:45 | -31.58076 | -64.35465 | 6005 ft | 279 kts | 56° |
| 2026-05-03 22:45 | -31.57126 | -64.33477 | 6006 ft | 280 kts | 56° |
| 2026-05-03 22:46 | -31.56175 | -64.31489 | 6005 ft | 279 kts | 56° |
| 2026-05-03 22:46 | -31.55225 | -64.29504 | 6007 ft | 280 kts | 56° |
| 2026-05-03 22:46 | -31.54275 | -64.27512 | 5941 ft | 281 kts | 56° |
| 2026-05-03 22:46 | -31.53327 | -64.25513 | 5816 ft | 280 kts | 56° |
| 2026-05-03 22:47 | -31.52386 | -64.23524 | 5690 ft | 278 kts | 56° |
| 2026-05-03 22:47 | -31.51448 | -64.21548 | 5574 ft | 277 kts | 56° |
| 2026-05-03 22:47 | -31.50508 | -64.19574 | 5432 ft | 277 kts | 56° |
| 2026-05-03 22:47 | -31.49573 | -64.17612 | 5326 ft | 276 kts | 56° |
| 2026-05-03 22:48 | -31.48640 | -64.15659 | 5202 ft | 274 kts | 56° |
| 2026-05-03 22:48 | -31.47702 | -64.13724 | 5073 ft | 270 kts | 54° |
| 2026-05-03 22:48 | -31.46880 | -64.11783 | 4999 ft | 261 kts | 62° |
| 2026-05-03 22:48 | -31.46211 | -64.09868 | 5005 ft | 247 kts | 63° |
| 2026-05-03 22:49 | -31.45579 | -64.08019 | 5012 ft | 244 kts | 63° |
| 2026-05-03 22:49 | -31.44933 | -64.06152 | 5011 ft | 244 kts | 63° |
| 2026-05-03 22:49 | -31.44302 | -64.04308 | 5003 ft | 244 kts | 62° |
| 2026-05-03 22:49 | -31.43596 | -64.02537 | 4988 ft | 235 kts | 47° |
| 2026-05-03 22:50 | -31.42463 | -64.01284 | 4887 ft | 218 kts | 24° |
| 2026-05-03 22:50 | -31.41064 | -64.00720 | 4842 ft | 212 kts | 3° |
| 2026-05-03 22:50 | -31.39612 | -64.00860 | 4802 ft | 210 kts | 342° |
| 2026-05-03 22:50 | -31.38330 | -64.01660 | 4749 ft | 211 kts | 322° |
| 2026-05-03 22:51 | -31.37408 | -64.03013 | 4700 ft | 217 kts | 300° |
| 2026-05-03 22:51 | -31.37033 | -64.04699 | 4675 ft | 218 kts | 279° |
| 2026-05-03 22:51 | -31.37284 | -64.06471 | 4578 ft | 226 kts | 252° |
| 2026-05-03 22:51 | -31.38128 | -64.08047 | 4437 ft | 231 kts | 238° |
| 2026-05-03 22:52 | -31.39089 | -64.09548 | 4281 ft | 231 kts | 237° |
| 2026-05-03 22:52 | -31.40055 | -64.11053 | 4120 ft | 230 kts | 237° |
| 2026-05-03 22:52 | -31.40982 | -64.12497 | 3979 ft | 214 kts | 238° |
| 2026-05-03 22:52 | -31.41861 | -64.13865 | 3836 ft | 206 kts | 237° |
| 2026-05-03 22:53 | -31.42567 | -64.15278 | 3663 ft | 197 kts | 262° |
| 2026-05-03 22:53 | -31.42426 | -64.16788 | 3606 ft | 187 kts | 300° |
| 2026-05-03 22:53 | -31.41557 | -64.17822 | 3355 ft | 179 kts | 333° |
| 2026-05-03 22:53 | -31.40484 | -64.18549 | 3115 ft | 173 kts | 333° |
| 2026-05-03 22:54 | -31.39497 | -64.19234 | 2925 ft | 159 kts | 334° |
| 2026-05-03 22:54 | -31.38590 | -64.19869 | 2754 ft | 147 kts | 335° |
| 2026-05-03 22:54 | -31.37726 | -64.20468 | 2554 ft | 141 kts | 335° |
| 2026-05-03 22:54 | -31.36806 | -64.20756 | 2398 ft | 136 kts | 1° |
| 2026-05-03 22:55 | -31.35847 | -64.20749 | 2305 ft | 138 kts | 1° |
| 2026-05-03 22:55 | -31.34891 | -64.20780 | 2128 ft | 136 kts | 1° |
| 2026-05-03 22:55 | -31.34255 | -64.20790 | 1992 ft | 138 kts | 359° |
| 2026-05-03 22:55 | -31.32972 | -64.20813 | 1749 ft | 139 kts | 359° |
| 2026-05-03 22:56 | -31.32019 | -64.20822 | 1618 ft | 130 kts | 359° |
| 2026-05-03 22:56 | -31.31472 | -64.20830 | 1621 ft | 101 kts | 359° |
| 2026-05-03 22:56 | -31.31071 | -64.20834 | 1617 ft | 22 kts | 1° |
| 2026-05-03 22:56 | -31.30985 | -64.20829 | 1615 ft | 3 kts | 294° |
| 2026-05-03 22:57 | -31.31006 | -64.20835 | 1618 ft | 6 kts | 181° |
| 2026-05-03 22:57 | -31.31103 | -64.20834 | 1616 ft | 18 kts | 179° |
| 2026-05-03 22:57 | -31.31236 | -64.20833 | 1615 ft | 20 kts | 179° |
| 2026-05-03 22:57 | -31.31378 | -64.20831 | 1620 ft | 19 kts | 178° |
| 2026-05-03 22:58 | -31.31465 | -64.20899 | 1617 ft | 12 kts | 262° |
| 2026-05-03 22:58 | -31.31467 | -64.20957 | 1613 ft | 3 kts | 270° |
| 2026-05-03 22:58 | -31.31467 | -64.20988 | 1613 ft | 5 kts | 270° |
| 2026-05-03 22:58 | -31.31467 | -64.20999 | 1613 ft | 0 kts | 268° |
| 2026-05-03 22:59 | -31.31467 | -64.21005 | 1613 ft | 2 kts | 266° |
| 2026-05-03 22:59 | -31.31473 | -64.21022 | 1615 ft | 3 kts | 250° |
| 2026-05-03 22:59 | -31.31483 | -64.21038 | 1617 ft | 2 kts | 227° |
| 2026-05-03 22:59 | -31.31497 | -64.21056 | 1620 ft | 4 kts | 227° |
| 2026-05-03 23:00 | -31.31510 | -64.21092 | 1613 ft | 6 kts | 262° |
| 2026-05-03 23:00 | -31.31512 | -64.21137 | 1613 ft | 2 kts | 267° |
| 2026-05-03 23:00 | -31.31513 | -64.21155 | 1613 ft | 1 kts | 267° |
| 2026-05-03 23:00 | -31.31513 | -64.21159 | 1613 ft | 0 kts | 267° |